Airfield :
LOGIN :

Register | Disclaimer

   EN    FR    IT 

 










Legend :    VFR   Marginal VFR   IFR   Intensive IFR   Very Intensive IFR
Visi :
Ceiling :
>= 8 km
>= 3000ft
5 to 8 km
1000 to 3000 ft
1500m to 5 km
500 to 1000 ft
800 to 1500m
200 to 500 ft
< 800m
< 200 ft
Symbols :   Thunderstorms  Fog  Heavy snow  Heavy precipitations  Wind > 20 kt
SIGMETs :     Misc.  Thunderstorms  Icing  Turbulence  Mountain Waves  Volcanic Ashes






- Airport Elevation : 755 ft
- IATA code : DRS


EDDC - Dresden Klotzsche

CURRENT METAR :
  • 181850Z 22005KT 9999 VCSH SCT046CB 10/07 Q1012 NOSIG

EXPIRED METARs :
  • 181820Z 24006KT 200V280 9999 -SHRA FEW033 BKN043CB 10/07 Q1012 NOSIG
  • 181750Z 27005KT 230V330 9999 VCTS VCSH SCT043CB 12/07 Q1012 RETS TEMPO SHRA
  • 181720Z 32006KT 290V350 9999 -TSRA BKN033CB 12/07 Q1011 RESHRA NOSIG
  • 181650Z 32003KT 290V360 9999 VCSH SCT040CB 14/07 Q1011 TEMPO 27015G25KT TSRA
  • 181620Z 32006KT 260V360 9999 SCT036 15/06 Q1011 TEMPO 27015G25KT TSRA

TAF TAF EDDC
Valid from the 18 at 18:00 until the 19 at 18:00 UTC


181700Z 1818/1918 27005KT 9999 SCT040
TEMPO 1818/1918 SHRA SCT020CB
PROB40
TEMPO 1818/1821 27015G25KT 4500 TSRA
BECMG 1900/1902 BKN012
TEMPO 1904/1911 2500 SHRA BKN008CB
BECMG 1907/1909 28010KT
BECMG 1909/1912 BKN020
PROB30
TEMPO 1912/1916 30015G25KT TSRA



MET'MAP, your aeronautical weather chart ! - Copyright ORBIFLY December 2007 - Disclaimer

ORBIFLY MET'MAP TEAM :

Programming & Development : Alexandra Zaïnal
Concept & original design : Baudouin d'Aumeries
Assistance for programming : Marc-Olivier Méhu
Technical & hardware support : Manuel Goepfert

Contact : metmap@orbifly.com




SOURCES & CREDITS :

   NOAA